Terminal Aerodrome Forecast
Issued by NWS Glasgow, MT

Home | Current Version | Previous Version | Text Only | Print | Product List | Glossary On
Versions: 1 2 3 4 5 6 7 8 9 10 11 12 13 14
152
FTUS45 KGGW 111537 AAB
TAFGGW
TAF AMD
KGGW 111537Z 1116/1212 08008KT 2SM -SN OVC020
     FM111800 05008KT P6SM BKN015
     FM120000 34005KT P6SM BKN020
     FM120600 04006KT P6SM BKN015
     FM120900 07007KT P6SM BKN008=

USA.gov is the U.S. government's official web portal to all federal, state and local government web resources and services.